createdAt,value
2023-05-15T00:03:47.549Z,7.05
2023-05-15T00:08:51.827Z,7.70
2023-05-15T00:13:56.082Z,7.07
2023-05-15T00:18:58.929Z,7.30
2023-05-15T00:24:01.694Z,8.27
2023-05-15T00:29:06.260Z,7.50
2023-05-15T00:34:09.098Z,7.57
2023-05-15T00:39:13.558Z,7.80
2023-05-15T00:44:20.044Z,7.45
2023-05-15T00:49:23.651Z,7.93
2023-05-15T00:54:26.607Z,7.78
2023-05-15T00:59:32.685Z,7.30
2023-05-15T01:04:35.642Z,7.38
2023-05-15T01:09:42.345Z,7.80
2023-05-15T01:14:46.793Z,8.18
2023-05-15T01:19:52.364Z,8.05
2023-05-15T01:25:41.045Z,7.70
2023-05-15T01:30:48.033Z,8.10
2023-05-15T01:35:57.137Z,8.32
2023-05-15T01:41:05.453Z,8.15
2023-05-15T01:46:10.852Z,8.60
2023-05-15T01:51:15.976Z,8.20
2023-05-15T01:56:20.100Z,8.80
2023-05-15T02:01:25.056Z,8.38
2023-05-15T02:06:29.430Z,8.63
2023-05-15T02:11:32.318Z,9.25
2023-05-15T02:16:36.763Z,9.48
2023-05-15T02:21:39.636Z,9.50
2023-05-15T02:26:51.438Z,9.85
2023-05-15T02:32:06.112Z,9.38
2023-05-15T02:37:12.207Z,9.35
2023-05-15T02:42:15.980Z,9.20
2023-05-15T02:47:21.381Z,9.13
2023-05-15T02:57:27.531Z,10.68
2023-05-15T03:02:31.671Z,9.48
2023-05-15T03:07:34.584Z,9.85
2023-05-15T03:12:37.944Z,10.68
2023-05-15T03:17:42.149Z,9.93
2023-05-15T03:22:46.270Z,10.95
2023-05-15T03:27:49.130Z,10.70
2023-05-15T03:32:53.289Z,11.88
2023-05-15T03:37:56.120Z,11.75
2023-05-15T03:42:58.874Z,11.13
2023-05-15T03:48:03.006Z,11.65
2023-05-15T03:53:06.203Z,10.93
2023-05-15T03:58:08.976Z,11.70
2023-05-15T04:03:13.153Z,10.80
2023-05-15T04:08:16.067Z,11.57
2023-05-15T04:13:18.810Z,11.77
2023-05-15T04:18:22.959Z,11.32
2023-05-15T04:23:25.752Z,11.85
2023-05-15T04:28:29.903Z,13.02
2023-05-15T04:33:34.614Z,11.60
2023-05-15T04:38:37.352Z,12.57
2023-05-15T04:43:41.292Z,13.07
2023-05-15T04:48:48.104Z,12.52
2023-05-15T04:53:51.082Z,12.10
2023-05-15T04:58:53.788Z,11.55
2023-05-15T05:03:57.959Z,12.85
2023-05-15T05:09:00.842Z,12.30
2023-05-15T05:14:03.814Z,12.02
2023-05-15T05:19:08.336Z,11.40
2023-05-15T05:24:11.657Z,11.73
2023-05-15T05:29:14.423Z,11.63
2023-05-15T05:39:44.987Z,11.25
2023-05-15T05:44:47.831Z,11.23
2023-05-15T05:49:52.029Z,11.20
2023-05-15T05:54:54.804Z,11.23
2023-05-15T05:59:57.763Z,11.05
2023-05-15T06:05:02.179Z,10.73
2023-05-15T06:10:34.189Z,9.75
2023-05-15T06:15:45.162Z,9.07
2023-05-15T06:20:51.795Z,8.35
2023-05-15T06:26:06.449Z,8.32
2023-05-15T06:31:09.583Z,7.38
2023-05-15T06:36:38.510Z,6.13
2023-05-15T06:41:41.620Z,5.28
2023-05-15T06:46:48.743Z,4.47
2023-05-15T06:51:54.953Z,4.78
2023-05-15T06:56:57.927Z,5.10
2023-05-15T07:02:01.381Z,4.63
2023-05-15T07:07:06.357Z,4.05
2023-05-15T07:12:09.998Z,4.30
2023-05-15T07:17:15.814Z,3.60
2023-05-15T07:22:20.167Z,3.40
2023-05-15T07:27:29.308Z,3.30
2023-05-15T07:32:49.683Z,2.97
2023-05-15T07:37:56.793Z,2.80
2023-05-15T07:43:10.344Z,2.53
2023-05-15T07:48:19.011Z,2.70
2023-05-15T07:53:23.226Z,2.92
2023-05-15T07:58:28.642Z,2.70
2023-05-15T08:03:37.472Z,2.60
2023-05-15T08:08:52.370Z,2.90
2023-05-15T08:14:19.997Z,2.85
2023-05-15T08:19:45.452Z,4.50
2023-05-15T08:24:49.743Z,3.00
2023-05-15T08:29:54.199Z,3.17
2023-05-15T08:34:58.046Z,2.60
2023-05-15T08:40:02.252Z,3.20
2023-05-15T08:45:07.412Z,2.92
2023-05-15T08:50:14.168Z,3.00
2023-05-15T08:55:19.052Z,2.80
2023-05-15T09:00:23.178Z,2.90
2023-05-15T09:05:26.200Z,3.00
2023-05-15T09:10:31.009Z,3.13
2023-05-15T09:15:37.361Z,2.92
2023-05-15T09:20:40.350Z,3.20
2023-05-15T09:25:46.345Z,3.17
2023-05-15T09:30:49.343Z,3.55
2023-05-15T09:35:53.088Z,3.20
2023-05-15T09:41:04.333Z,3.15
2023-05-15T09:46:08.340Z,3.20
2023-05-15T09:51:16.630Z,3.00
2023-05-15T09:56:22.039Z,3.72
2023-05-15T10:01:25.466Z,3.58
2023-05-15T10:06:38.431Z,3.40
2023-05-15T10:11:55.479Z,3.25
2023-05-15T10:16:59.187Z,3.60
2023-05-15T10:22:03.300Z,2.60
2023-05-15T10:27:10.217Z,3.00
2023-05-15T10:32:15.041Z,2.95
2023-05-15T10:37:19.773Z,3.15
2023-05-15T10:42:26.672Z,2.50
2023-05-15T10:47:30.365Z,2.70
2023-05-15T10:52:34.182Z,2.90
2023-05-15T10:57:38.751Z,2.83
2023-05-15T11:02:42.170Z,3.13
2023-05-15T11:07:45.195Z,2.83
2023-05-15T11:12:59.466Z,3.00
2023-05-15T11:18:06.670Z,2.80
2023-05-15T11:23:10.083Z,2.80
2023-05-15T11:28:24.406Z,3.05
2023-05-15T11:33:31.245Z,3.28
2023-05-15T11:38:39.641Z,3.30
2023-05-15T11:43:44.147Z,2.97
2023-05-15T11:48:48.679Z,2.90
2023-05-15T11:53:52.756Z,3.60
2023-05-15T11:58:58.941Z,3.17
2023-05-15T12:04:02.329Z,3.35
2023-05-15T12:09:05.820Z,4.18
2023-05-15T12:14:13.678Z,5.90
2023-05-15T12:19:16.684Z,6.10
2023-05-15T12:24:21.940Z,6.07
2023-05-15T12:29:29.335Z,7.00
2023-05-15T12:34:32.788Z,6.40
2023-05-15T12:39:36.147Z,7.15
2023-05-15T12:44:40.960Z,6.80
2023-05-15T12:49:43.828Z,7.00
2023-05-15T12:54:47.086Z,7.85
2023-05-15T12:59:51.968Z,7.20
2023-05-15T13:04:54.722Z,7.70
2023-05-15T13:10:06.451Z,8.07
2023-05-15T13:15:23.979Z,9.20
2023-05-15T13:20:28.086Z,9.50
2023-05-15T13:25:32.253Z,8.80
2023-05-15T13:30:36.700Z,8.40
2023-05-15T13:35:41.280Z,10.68
2023-05-15T13:40:44.159Z,10.35
2023-05-15T13:45:48.612Z,10.38
2023-05-15T13:50:51.387Z,8.70
2023-05-15T13:55:54.171Z,10.20
2023-05-15T14:00:58.388Z,10.50
2023-05-15T14:06:01.385Z,9.18
2023-05-15T14:11:04.199Z,9.20
2023-05-15T14:16:09.105Z,9.05
2023-05-15T14:21:11.976Z,8.50
2023-05-15T14:26:14.754Z,8.88
2023-05-15T14:31:18.937Z,8.18
2023-05-15T14:36:21.824Z,9.45
2023-05-15T14:41:24.695Z,9.68
2023-05-15T14:46:29.612Z,9.77
2023-05-15T14:51:32.526Z,9.75
2023-05-15T14:56:35.283Z,10.18
2023-05-15T15:01:39.529Z,11.05
2023-05-15T15:06:45.231Z,12.38
2023-05-15T15:11:48.031Z,13.05
2023-05-15T15:16:52.240Z,13.65
2023-05-15T15:21:55.144Z,11.73
2023-05-15T15:26:57.919Z,11.77
2023-05-15T15:32:02.145Z,12.35
2023-05-15T15:37:05.314Z,10.98
2023-05-15T15:42:08.142Z,9.70
2023-05-15T15:47:19.099Z,7.95
2023-05-15T15:52:22.027Z,6.88
2023-05-15T15:57:24.928Z,7.20
2023-05-15T16:02:29.351Z,7.35
2023-05-15T16:07:32.229Z,7.45
2023-05-15T16:12:35.132Z,7.30
2023-05-15T16:17:39.918Z,6.95
2023-05-15T16:22:43.858Z,6.70
2023-05-15T16:27:46.696Z,6.80
2023-05-15T16:32:50.936Z,6.60
2023-05-15T16:37:53.773Z,6.00
2023-05-15T16:42:59.201Z,5.93
2023-05-15T16:48:03.750Z,6.22
2023-05-15T16:53:07.296Z,6.07
2023-05-15T16:58:10.154Z,6.78
2023-05-15T17:03:14.394Z,6.45
2023-05-15T17:08:20.933Z,5.93
2023-05-15T17:13:59.636Z,6.55
2023-05-15T17:19:17.244Z,5.88
2023-05-15T17:24:22.085Z,6.18
2023-05-15T17:29:27.886Z,6.78
2023-05-15T17:34:32.053Z,5.43
2023-05-15T17:39:34.924Z,5.38
2023-05-15T17:44:37.904Z,5.43
2023-05-15T17:49:42.485Z,5.35
2023-05-15T17:55:10.950Z,5.03
2023-05-15T18:00:15.137Z,5.55
2023-05-15T18:05:20.591Z,4.65
2023-05-15T18:10:23.680Z,5.43
2023-05-15T18:15:31.781Z,5.82
2023-05-15T18:20:36.163Z,5.90
2023-05-15T18:25:39.079Z,5.80
2023-05-15T18:30:41.993Z,5.78
2023-05-15T18:35:48.824Z,5.75
2023-05-15T18:40:56.172Z,6.03
2023-05-15T18:45:59.084Z,6.53
2023-05-15T18:51:04.956Z,6.72
2023-05-15T18:56:07.920Z,6.78
2023-05-15T19:01:10.880Z,6.88
2023-05-15T19:06:20.338Z,7.32
2023-05-15T19:11:25.912Z,5.90
2023-05-15T19:16:28.961Z,6.10
2023-05-15T19:21:33.390Z,6.05
2023-05-15T19:26:36.499Z,5.97
2023-05-15T19:31:39.700Z,6.13
2023-05-15T19:36:46.019Z,6.70
2023-05-15T19:41:51.278Z,6.10
2023-05-15T19:46:56.856Z,5.97
2023-05-15T19:52:01.369Z,6.50
2023-05-15T19:57:04.524Z,6.55
2023-05-15T20:02:10.614Z,6.60
2023-05-15T20:07:15.032Z,7.00
2023-05-15T20:12:18.192Z,6.82
2023-05-15T20:17:21.063Z,7.13
2023-05-15T20:22:25.273Z,6.88
2023-05-15T20:27:28.154Z,7.05
2023-05-15T20:32:31.927Z,6.82
2023-05-15T20:37:36.987Z,6.55
2023-05-15T20:42:40.256Z,6.68
2023-05-15T20:47:43.328Z,7.05
2023-05-15T20:52:47.908Z,6.28
2023-05-15T20:57:51.199Z,6.22
2023-05-15T21:02:54.208Z,5.35
2023-05-15T21:07:58.795Z,5.80
2023-05-15T21:13:01.595Z,5.55
2023-05-15T21:18:04.838Z,5.70
2023-05-15T21:23:09.036Z,5.20
2023-05-15T21:28:11.810Z,5.45
2023-05-15T21:33:14.606Z,5.22
2023-05-15T21:38:18.905Z,5.47
2023-05-15T21:43:21.705Z,5.03
2023-05-15T21:48:24.951Z,4.60
2023-05-15T21:53:29.386Z,4.72
2023-05-15T21:58:32.391Z,4.60
2023-05-15T22:03:35.378Z,4.50
2023-05-15T22:08:39.740Z,4.32
2023-05-15T22:13:42.625Z,4.70
2023-05-15T22:18:47.639Z,4.35
2023-05-15T22:23:53.266Z,3.70
2023-05-15T22:28:56.574Z,4.47
2023-05-15T22:33:59.330Z,4.05
2023-05-15T22:39:04.163Z,3.97
2023-05-15T22:44:06.970Z,3.67
2023-05-15T22:49:12.434Z,3.70
2023-05-15T22:54:16.780Z,3.10
2023-05-15T22:59:19.950Z,3.05
2023-05-15T23:04:22.911Z,2.70
2023-05-15T23:09:27.215Z,2.20
2023-05-15T23:14:31.075Z,2.35
2023-05-15T23:19:33.870Z,2.70
2023-05-15T23:24:38.121Z,2.30
2023-05-15T23:29:41.013Z,2.53
2023-05-15T23:34:43.977Z,2.10
2023-05-15T23:39:48.120Z,2.30
2023-05-15T23:44:51.172Z,2.20
2023-05-15T23:49:53.968Z,1.88
2023-05-15T23:54:58.318Z,2.20
